| time (UTC) | temp F | wind direction | speed MPH | gust MPH | rain 1hr in | rain 24hr in | rain mn in | humidity % | barometer mb |
| 20260905214604 | 100 | 98 | 1.0 | 5.0 | 0.00 | 0.00 | 0.00 | 37 | 1009.2 |
| 20260905213051 | 100 | 100 | 1.0 | 7.0 | 0.00 | 0.00 | 0.00 | 37 | 1009.3 |
| 20260905211550 | 101 | 96 | 0.0 | 5.0 | 0.00 | 0.00 | 0.00 | 36 | 1009.4 |
| 20260905210049 | 101 | 96 | 3.0 | 8.0 | 0.00 | 0.00 | 0.00 | 36 | 1009.7 |
| 20260905204546 | 100 | 94 | 0.0 | 1.0 | 0.00 | 0.00 | 0.00 | 37 | 1009.9 |
| 20260905203044 | 101 | 95 | 0.0 | 7.0 | 0.00 | 0.00 | 0.00 | 36 | 1010.2 |
| 20260905201542 | 100 | 170 | 0.0 | 8.0 | 0.00 | 0.00 | 0.00 | 37 | 1010.4 |
| 20260905200045 | 101 | 129 | 0.0 | 5.0 | 0.00 | 0.00 | 0.00 | 37 | 1010.6 |
| 20260905194538 | 101 | 97 | 1.0 | 7.0 | 0.00 | 0.00 | 0.00 | 36 | 1010.9 |
| 20260905193036 | 101 | 130 | 0.0 | 6.0 | 0.00 | 0.00 | 0.00 | 36 | 1011.2 |
| 20260905191535 | 101 | 95 | 0.0 | 10.0 | 0.00 | 0.00 | 0.00 | 37 | 1011.3 |
| 20260905190035 | 100 | 177 | 0.0 | 9.0 | 0.00 | 0.00 | 0.00 | 39 | 1011.4 |
| 20260905184537 | 101 | 105 | 0.0 | 4.0 | 0.00 | 0.00 | 0.00 | 38 | 1011.6 |
| 20260905183036 | 101 | 124 | 0.0 | 1.0 | 0.00 | 0.00 | 0.00 | 38 | 1011.8 |
| 20260905181532 | 100 | 106 | 1.0 | 5.0 | 0.00 | 0.00 | 0.00 | 39 | 1012.1 |
| 20260905180032 | 100 | 105 | 2.0 | 8.0 | 0.00 | 0.00 | 0.00 | 39 | 1012.1 |
| 20260905174536 | 101 | 94 | 0.0 | 3.0 | 0.00 | 0.00 | 0.00 | 37 | 1012.4 |
| 20260905173030 | 101 | 101 | 0.0 | 3.0 | 0.00 | 0.00 | 0.00 | 38 | 1012.6 |
| 20260905171527 | 100 | 152 | 0.0 | 0.0 | 0.00 | 0.00 | 0.00 | 41 | 1012.8 |
| 20260905170025 | 98 | 141 | 0.0 | 1.0 | 0.00 | 0.00 | 0.00 | 42 | 1012.8 |
| 20260905164523 | 98 | 172 | 0.0 | 1.0 | 0.00 | 0.00 | 0.00 | 43 | 1013.0 |
| 20260905163020 | 98 | 173 | 0.0 | 0.0 | 0.00 | 0.00 | 0.00 | 45 | 1013.1 |
| 20260905161516 | 96 | 140 | 0.0 | 1.0 | 0.00 | 0.00 | 0.00 | 47 | 1013.1 |
| 20260905160022 | 95 | 147 | 0.0 | 1.0 | 0.00 | 0.00 | 0.00 | 48 | 1013.2 |
| 20260905154508 | 95 | 139 | 0.0 | 2.0 | 0.00 | 0.00 | 0.00 | 50 | 1013.1 |
| 20260905153005 | 94 | 95 | 0.0 | 1.0 | 0.00 | 0.00 | 0.00 | 52 | 1013.1 |
| 20260905151600 | 92 | 132 | 0.0 | 3.0 | 0.00 | 0.00 | 0.00 | 55 | 1013.0 |
| 20260905150057 | 91 | 139 | 0.0 | 1.0 | 0.00 | 0.00 | 0.00 | 55 | 1013.0 |
| 20260905144554 | 90 | 92 | 0.0 | 1.0 | 0.00 | 0.00 | 0.00 | 57 | 1012.9 |
| 20260905143050 | 87 | 127 | 0.0 | 1.0 | 0.00 | 0.00 | 0.00 | 61 | 1012.8 |
| 20260905141607 | 85 | 95 | 0.0 | 0.0 | 0.00 | 0.00 | 0.00 | 65 | 1012.8 |
| 20260905140054 | 83 | 105 | 0.0 | 5.0 | 0.00 | 0.00 | 0.00 | 69 | 1012.9 |
| 20260905134536 | 81 | 101 | 0.0 | 4.0 | 0.00 | 0.00 | 0.00 | 72 | 1012.8 |
| 20260905133049 | 80 | 95 | 0.0 | 3.0 | 0.00 | 0.00 | 0.00 | 74 | 1012.8 |
| 20260905131549 | 78 | 96 | 0.0 | 2.0 | 0.00 | 0.00 | 0.00 | 78 | 1012.6 |
| 20260905130032 | 76 | 94 | 0.0 | 0.0 | 0.00 | 0.00 | 0.00 | 82 | 1012.5 |
| 20260905124529 | 75 | 105 | 0.0 | 0.0 | 0.00 | 0.00 | 0.00 | 84 | 1012.4 |
| 20260905123029 | 75 | 105 | 0.0 | 0.0 | 0.00 | 0.00 | 0.00 | 85 | 1012.4 |
| 20260905121527 | 74 | 105 | 0.0 | 0.0 | 0.00 | 0.00 | 0.00 | 85 | 1012.3 |
| 20260905120027 | 74 | 105 | 0.0 | 0.0 | 0.00 | 0.00 | 0.00 | 85 | 1012.2 |
| 20260905114525 | 74 | 105 | 0.0 | 0.0 | 0.00 | 0.00 | 0.00 | 86 | 1012.1 |
| 20260905113022 | 74 | 105 | 0.0 | 0.0 | 0.00 | 0.00 | 0.00 | 84 | 1012.2 |
| 20260905111520 | 75 | 105 | 0.0 | 0.0 | 0.00 | 0.00 | 0.00 | 84 | 1012.1 |
| 20260905110017 | 75 | 105 | 0.0 | 0.0 | 0.00 | 0.00 | 0.00 | 83 | 1012.0 |
| 20260905104515 | 75 | 105 | 0.0 | 0.0 | 0.00 | 0.00 | 0.00 | 83 | 1011.9 |
| 20260905103028 | 75 | 105 | 0.0 | 0.0 | 0.00 | 0.00 | 0.00 | 82 | 1011.8 |
| 20260905101515 | 76 | 105 | 0.0 | 0.0 | 0.00 | 0.00 | 0.00 | 82 | 1011.7 |
| 20260905100011 | 76 | 105 | 0.0 | 0.0 | 0.00 | 0.00 | 0.00 | 81 | 1011.6 |
| 20260905094510 | 76 | 105 | 0.0 | 0.0 | 0.00 | 0.00 | 0.00 | 81 | 1011.6 |
| 20260905093009 | 76 | 105 | 0.0 | 0.0 | 0.00 | 0.00 | 0.00 | 79 | 1011.4 |
| 20260905091507 | 76 | 105 | 0.0 | 0.0 | 0.00 | 0.00 | 0.00 | 79 | 1011.4 |
| 20260905090006 | 77 | 105 | 0.0 | 0.0 | 0.00 | 0.00 | 0.00 | 78 | 1011.5 |
| 20260905084509 | 77 | 105 | 0.0 | 0.0 | 0.00 | 0.00 | 0.00 | 77 | 1011.4 |
| 20260905083004 | 77 | 105 | 0.0 | 0.0 | 0.00 | 0.00 | 0.00 | 76 | 1011.5 |
| 20260905081503 | 77 | 105 | 0.0 | 0.0 | 0.00 | 0.00 | 0.00 | 76 | 1011.5 |
| 20260905080002 | 77 | 105 | 0.0 | 0.0 | 0.00 | 0.00 | 0.00 | 75 | 1011.5 |
| 20260905074604 | 78 | 105 | 0.0 | 0.0 | 0.00 | 0.00 | 0.00 | 75 | 1011.5 |
| 20260905073107 | 78 | 105 | 0.0 | 0.0 | 0.00 | 0.00 | 0.00 | 75 | 1011.3 |
| 20260905071557 | 78 | 105 | 0.0 | 0.0 | 0.00 | 0.00 | 0.00 | 74 | 1011.3 |
| 20260905070055 | 79 | 105 | 0.0 | 0.0 | 0.00 | 0.00 | 0.00 | 72 | 1011.3 |
| 20260905064609 | 79 | 105 | 0.0 | 0.0 | 0.00 | 0.00 | 0.00 | 72 | 1011.5 |
| 20260905063057 | 79 | 105 | 0.0 | 0.0 | 0.00 | 0.00 | 0.00 | 71 | 1011.4 |
| 20260905061613 | 80 | 105 | 0.0 | 0.0 | 0.00 | 0.00 | 0.00 | 70 | 1011.4 |
| 20260905060051 | 80 | 105 | 0.0 | 0.0 | 0.00 | 0.00 | 0.00 | 70 | 1011.4 |
| 20260905054548 | 79 | 105 | 0.0 | 0.0 | 0.00 | 0.00 | 0.00 | 71 | 1011.3 |
| 20260905053045 | 80 | 105 | 0.0 | 0.0 | 0.00 | 0.00 | 0.00 | 71 | 1011.3 |
| 20260905051557 | 80 | 105 | 0.0 | 0.0 | 0.00 | 0.00 | 0.00 | 70 | 1011.3 |
| 20260905050041 | 81 | 105 | 0.0 | 0.0 | 0.00 | 0.00 | 0.00 | 70 | 1011.2 |
| 20260905044551 | 81 | 105 | 0.0 | 0.0 | 0.00 | 0.00 | 0.00 | 69 | 1011.3 |
| 20260905043039 | 82 | 105 | 0.0 | 0.0 | 0.00 | 0.00 | 0.00 | 67 | 1011.3 |
| 20260905041539 | 83 | 105 | 0.0 | 0.0 | 0.00 | 0.00 | 0.00 | 66 | 1011.3 |
| 20260905040047 | 84 | 105 | 0.0 | 0.0 | 0.00 | 0.00 | 0.00 | 64 | 1011.2 |
| 20260905034555 | 85 | 105 | 0.0 | 0.0 | 0.00 | 0.00 | 0.00 | 61 | 1011.1 |
| 20260905033056 | 85 | 105 | 0.0 | 0.0 | 0.00 | 0.00 | 0.00 | 60 | 1011.0 |
| 20260905031537 | 84 | 105 | 0.0 | 0.0 | 0.00 | 0.00 | 0.00 | 62 | 1010.9 |
| 20260905030037 | 85 | 105 | 0.0 | 0.0 | 0.00 | 0.00 | 0.00 | 60 | 1010.8 |
| 20260905024536 | 86 | 105 | 0.0 | 0.0 | 0.00 | 0.00 | 0.00 | 59 | 1010.6 |
| 20260905023108 | 87 | 105 | 0.0 | 0.0 | 0.00 | 0.00 | 0.00 | 57 | 1010.5 |
| 20260905021535 | 87 | 105 | 0.0 | 0.0 | 0.00 | 0.00 | 0.00 | 55 | 1010.3 |
| 20260905020035 | 88 | 105 | 0.0 | 0.0 | 0.00 | 0.00 | 0.00 | 54 | 1009.9 |
| 20260905014533 | 89 | 105 | 0.0 | 0.0 | 0.00 | 0.00 | 0.00 | 51 | 1009.7 |
| 20260905013033 | 91 | 105 | 0.0 | 0.0 | 0.00 | 0.00 | 0.00 | 48 | 1009.5 |
| 20260905011533 | 93 | 105 | 0.0 | 0.0 | 0.00 | 0.00 | 0.00 | 45 | 1009.4 |
| 20260905010037 | 94 | 103 | 0.0 | 0.0 | 0.00 | 0.00 | 0.00 | 44 | 1009.2 |
| 20260905004532 | 95 | 94 | 0.0 | 1.0 | 0.00 | 0.00 | 0.00 | 43 | 1009.1 |
| 20260905003031 | 96 | 98 | 0.0 | 4.0 | 0.00 | 0.00 | 0.00 | 42 | 1009.1 |
| 20260905001531 | 96 | 95 | 0.0 | 4.0 | 0.00 | 0.00 | 0.00 | 42 | 1009.2 |
| 20260905000030 | 97 | 103 | 0.0 | 5.0 | 0.00 | 0.00 | 0.00 | 40 | 1009.2 |
| 20260904234534 | 98 | 131 | 0.0 | 6.0 | 0.00 | 0.00 | 0.00 | 38 | 1009.1 |
| 20260904233029 | 99 | 98 | 0.0 | 4.0 | 0.00 | 0.00 | 0.00 | 38 | 1009.0 |
| 20260904231528 | 100 | 93 | 0.0 | 8.0 | 0.00 | 0.00 | 0.00 | 38 | 1009.1 |
| 20260904230027 | 100 | 137 | 0.0 | 8.0 | 0.00 | 0.00 | 0.00 | 38 | 1009.1 |
| 20260904224528 | 100 | 102 | 1.0 | 6.0 | 0.00 | 0.00 | 0.00 | 38 | 1009.1 |
| 20260904223024 | 100 | 97 | 3.0 | 7.0 | 0.00 | 0.00 | 0.00 | 38 | 1009.2 |
| 20260904221523 | 99 | 97 | 2.0 | 8.0 | 0.00 | 0.00 | 0.00 | 40 | 1009.2 |
| 20260904220027 | 99 | 103 | 2.0 | 8.0 | 0.00 | 0.00 | 0.00 | 40 | 1009.3 |